createdAt,value
2022-11-27T00:04:22.539Z,2.60
2022-11-27T00:09:28.204Z,2.60
2022-11-27T00:14:33.685Z,2.87
2022-11-27T00:19:42.058Z,2.28
2022-11-27T00:24:47.816Z,2.00
2022-11-27T00:29:53.412Z,2.15
2022-11-27T00:35:01.616Z,2.58
2022-11-27T00:40:08.221Z,2.17
2022-11-27T00:45:15.356Z,1.92
2022-11-27T00:50:23.410Z,2.27
2022-11-27T00:55:29.210Z,2.38
2022-11-27T01:00:34.649Z,2.03
2022-11-27T01:05:42.693Z,1.90
2022-11-27T01:10:54.958Z,2.25
2022-11-27T01:16:02.819Z,2.10
2022-11-27T01:21:11.514Z,2.45
2022-11-27T01:26:17.733Z,1.90
2022-11-27T01:31:25.658Z,2.10
2022-11-27T01:36:34.461Z,1.90
2022-11-27T01:41:41.522Z,2.20
2022-11-27T01:46:50.906Z,2.00
2022-11-27T01:52:04.441Z,2.00
2022-11-27T01:57:14.949Z,1.77
2022-11-27T02:02:20.983Z,1.90
2022-11-27T02:07:29.180Z,1.70
2022-11-27T02:12:39.202Z,1.90
2022-11-27T02:17:50.291Z,2.08
2022-11-27T02:23:28.398Z,2.00
2022-11-27T02:28:47.137Z,2.05
2022-11-27T02:33:58.858Z,2.30
2022-11-27T02:39:08.878Z,2.38
2022-11-27T02:44:15.201Z,2.35
2022-11-27T02:49:24.444Z,2.60
2022-11-27T02:54:32.705Z,3.15
2022-11-27T02:59:40.069Z,3.00
2022-11-27T03:04:51.791Z,3.60
2022-11-27T03:10:01.790Z,3.05
2022-11-27T03:15:09.877Z,3.22
2022-11-27T03:20:22.322Z,3.83
2022-11-27T03:25:27.981Z,3.93
2022-11-27T03:30:33.559Z,4.30
2022-11-27T03:35:42.263Z,4.60
2022-11-27T03:40:52.790Z,4.37
2022-11-27T03:46:02.583Z,5.03
2022-11-27T03:51:20.145Z,4.83
2022-11-27T03:56:36.845Z,4.72
2022-11-27T04:01:42.772Z,4.78
2022-11-27T04:06:50.750Z,4.28
2022-11-27T04:11:56.040Z,4.47
2022-11-27T04:17:01.669Z,4.50
2022-11-27T04:22:10.290Z,4.45
2022-11-27T04:27:15.876Z,4.50
2022-11-27T04:32:21.149Z,4.53
2022-11-27T04:37:29.354Z,5.40
2022-11-27T04:42:34.869Z,5.13
2022-11-27T04:47:40.196Z,4.78
2022-11-27T04:52:48.098Z,5.20
2022-11-27T04:57:53.389Z,4.78
2022-11-27T05:02:58.975Z,4.78
2022-11-27T05:08:07.349Z,4.97
2022-11-27T05:13:12.660Z,4.68
2022-11-27T05:18:18.012Z,4.95
2022-11-27T05:23:25.899Z,4.75
2022-11-27T05:28:31.246Z,3.75
2022-11-27T05:33:36.705Z,4.80
2022-11-27T05:38:44.792Z,4.68
2022-11-27T05:43:50.354Z,4.13
2022-11-27T05:48:55.936Z,5.35
2022-11-27T05:54:04.014Z,5.07
2022-11-27T05:59:10.254Z,3.97
2022-11-27T06:04:15.662Z,4.22
2022-11-27T06:09:23.715Z,4.28
2022-11-27T06:14:29.820Z,4.28
2022-11-27T06:19:35.215Z,4.50
2022-11-27T06:24:43.388Z,4.03
2022-11-27T06:29:48.735Z,4.07
2022-11-27T06:34:54.098Z,4.03
2022-11-27T06:40:02.589Z,4.80
2022-11-27T06:45:09.568Z,3.90
2022-11-27T06:50:15.123Z,4.03
2022-11-27T06:55:23.044Z,4.40
2022-11-27T07:00:28.479Z,3.38
2022-11-27T07:05:33.908Z,4.00
2022-11-27T07:10:41.868Z,4.30
2022-11-27T07:15:47.597Z,4.07
2022-11-27T07:20:56.686Z,4.95
2022-11-27T07:26:08.335Z,3.90
2022-11-27T07:31:16.206Z,5.80
2022-11-27T07:36:24.066Z,4.05
2022-11-27T07:41:34.079Z,4.10
2022-11-27T07:46:39.770Z,3.38
2022-11-27T07:51:45.295Z,3.65
2022-11-27T07:56:53.283Z,3.87
2022-11-27T08:01:58.821Z,4.55
2022-11-27T08:07:05.225Z,4.30
2022-11-27T08:12:13.607Z,3.90
2022-11-27T08:17:19.087Z,3.30
2022-11-27T08:22:24.412Z,3.57
2022-11-27T08:27:33.943Z,3.60
2022-11-27T08:32:42.294Z,3.15
2022-11-27T08:37:47.763Z,3.15
2022-11-27T08:42:56.054Z,3.47
2022-11-27T08:48:01.674Z,3.20
2022-11-27T08:53:07.115Z,3.53
2022-11-27T08:58:15.606Z,4.18
2022-11-27T09:03:20.992Z,3.13
2022-11-27T09:08:26.370Z,3.37
2022-11-27T09:13:36.913Z,3.47
2022-11-27T09:18:42.572Z,3.70
2022-11-27T09:23:48.111Z,2.90
2022-11-27T09:28:56.697Z,3.17
2022-11-27T09:34:02.657Z,2.47
2022-11-27T09:39:08.030Z,3.47
2022-11-27T09:44:35.582Z,3.30
2022-11-27T09:49:47.014Z,3.20
2022-11-27T09:54:59.559Z,3.22
2022-11-27T10:00:14.432Z,3.47
2022-11-27T10:05:23.828Z,3.28
2022-11-27T10:10:40.669Z,3.10
2022-11-27T10:15:54.676Z,2.97
2022-11-27T10:21:05.912Z,3.47
2022-11-27T10:26:20.164Z,3.50
2022-11-27T10:31:35.860Z,3.63
2022-11-27T10:36:46.440Z,3.80
2022-11-27T10:41:57.006Z,3.28
2022-11-27T10:47:07.635Z,3.55
2022-11-27T10:52:17.001Z,3.47
2022-11-27T10:57:55.050Z,3.75
2022-11-27T11:03:08.222Z,3.43
2022-11-27T11:08:20.711Z,3.30
2022-11-27T11:13:29.302Z,3.75
2022-11-27T11:18:44.151Z,3.00
2022-11-27T11:23:58.424Z,3.45
2022-11-27T11:29:05.974Z,2.90
2022-11-27T11:34:23.031Z,3.47
2022-11-27T11:39:31.920Z,3.75
2022-11-27T11:44:40.446Z,3.57
2022-11-27T11:49:50.947Z,4.38
2022-11-27T11:55:02.993Z,3.27
2022-11-27T12:00:12.471Z,3.55
2022-11-27T12:05:29.796Z,3.95
2022-11-27T12:10:42.099Z,3.67
2022-11-27T12:15:55.212Z,3.70
2022-11-27T12:21:13.949Z,3.77
2022-11-27T12:26:29.493Z,3.47
2022-11-27T12:31:47.711Z,3.05
2022-11-27T12:37:17.174Z,3.57
2022-11-27T12:42:28.385Z,3.80
2022-11-27T12:47:40.428Z,4.47
2022-11-27T12:52:54.395Z,3.22
2022-11-27T12:58:04.474Z,4.75
2022-11-27T13:03:18.624Z,3.60
2022-11-27T13:08:31.418Z,3.03
2022-11-27T13:13:40.982Z,2.93
2022-11-27T13:18:51.578Z,3.30
2022-11-27T13:24:04.311Z,2.60
2022-11-27T13:29:23.401Z,2.80
2022-11-27T13:34:31.447Z,2.97
2022-11-27T13:39:44.909Z,2.87
2022-11-27T13:44:58.858Z,2.55
2022-11-27T13:50:07.165Z,2.70
2022-11-27T13:55:26.498Z,3.97
2022-11-27T14:00:38.957Z,2.72
2022-11-27T14:05:46.617Z,2.93
2022-11-27T14:10:59.084Z,2.83
2022-11-27T14:16:05.737Z,3.42
2022-11-27T14:21:11.596Z,2.50
2022-11-27T14:26:26.204Z,2.42
2022-11-27T14:31:33.351Z,3.30
2022-11-27T14:36:38.934Z,2.38
2022-11-27T14:41:47.104Z,2.33
2022-11-27T14:46:53.803Z,2.93
2022-11-27T14:52:02.952Z,4.68
2022-11-27T14:57:17.849Z,2.83
2022-11-27T15:02:28.779Z,2.47
2022-11-27T15:07:45.174Z,2.10
2022-11-27T15:12:55.299Z,2.60
2022-11-27T15:18:03.364Z,2.40
2022-11-27T15:23:18.201Z,2.60
2022-11-27T15:28:53.199Z,2.72
2022-11-27T15:34:01.130Z,3.15
2022-11-27T15:39:22.978Z,2.83
2022-11-27T15:44:32.849Z,2.67
2022-11-27T15:49:38.217Z,2.40
2022-11-27T15:54:43.817Z,3.28
2022-11-27T15:59:51.911Z,2.85
2022-11-27T16:04:57.253Z,3.73
2022-11-27T16:10:02.867Z,3.30
2022-11-27T16:15:12.870Z,3.10
2022-11-27T16:20:18.378Z,3.00
2022-11-27T16:25:25.261Z,2.35
2022-11-27T16:30:33.353Z,3.10
2022-11-27T16:35:39.372Z,2.78
2022-11-27T16:40:45.353Z,3.10
2022-11-27T16:45:54.055Z,3.58
2022-11-27T16:51:04.965Z,3.13
2022-11-27T16:56:11.969Z,2.63
2022-11-27T17:01:21.900Z,3.40
2022-11-27T17:06:30.218Z,3.27
2022-11-27T17:11:37.612Z,3.70
2022-11-27T17:16:45.847Z,3.30
2022-11-27T17:21:52.702Z,3.50
2022-11-27T17:26:58.761Z,3.17
2022-11-27T17:32:13.058Z,3.40
2022-11-27T17:37:19.908Z,3.33
2022-11-27T17:42:25.290Z,3.10
2022-11-27T17:47:34.192Z,3.33
2022-11-27T17:52:40.211Z,5.00
2022-11-27T17:57:45.796Z,3.30
2022-11-27T18:02:54.505Z,3.15
2022-11-27T18:08:00.571Z,3.42
2022-11-27T18:13:06.320Z,3.03
2022-11-27T18:18:14.510Z,3.03
2022-11-27T18:23:19.934Z,3.20
2022-11-27T18:28:25.386Z,3.60
2022-11-27T18:33:33.597Z,2.95
2022-11-27T18:38:41.625Z,3.23
2022-11-27T18:43:47.744Z,3.10
2022-11-27T18:48:57.263Z,3.10
2022-11-27T18:54:04.008Z,3.33
2022-11-27T18:59:10.228Z,2.90
2022-11-27T19:04:18.725Z,3.10
2022-11-27T19:09:25.239Z,3.15
2022-11-27T19:14:32.239Z,3.00
2022-11-27T19:19:55.716Z,3.67
2022-11-27T19:25:01.639Z,3.40
2022-11-27T19:30:08.098Z,3.23
2022-11-27T19:35:22.197Z,3.40
2022-11-27T19:40:29.663Z,3.07
2022-11-27T19:45:38.630Z,3.70
2022-11-27T19:50:46.796Z,3.97
2022-11-27T19:55:55.941Z,3.27
2022-11-27T20:01:09.050Z,3.70
2022-11-27T20:06:19.512Z,3.37
2022-11-27T20:11:33.968Z,2.80
2022-11-27T20:16:41.403Z,3.17
2022-11-27T20:21:50.775Z,3.37
2022-11-27T20:26:57.954Z,3.03
2022-11-27T20:32:03.695Z,3.47
2022-11-27T20:37:12.078Z,3.15
2022-11-27T20:42:17.508Z,3.20
2022-11-27T20:47:22.897Z,3.43
2022-11-27T20:52:30.897Z,3.17
2022-11-27T20:57:37.996Z,3.60
2022-11-27T21:02:44.152Z,3.08
2022-11-27T21:07:52.304Z,3.47
2022-11-27T21:12:57.781Z,3.50
2022-11-27T21:18:03.432Z,3.85
2022-11-27T21:23:12.063Z,3.83
2022-11-27T21:28:17.422Z,3.75
2022-11-27T21:33:22.986Z,3.65
2022-11-27T21:38:31.213Z,3.60
2022-11-27T21:43:37.079Z,4.38
2022-11-27T21:48:42.872Z,4.30
2022-11-27T21:53:53.694Z,4.13
2022-11-27T21:58:59.160Z,3.90
2022-11-27T22:04:05.247Z,4.17
2022-11-27T22:09:15.600Z,4.10
2022-11-27T22:14:21.608Z,3.90
2022-11-27T22:19:27.014Z,4.55
2022-11-27T22:24:35.320Z,4.28
2022-11-27T22:29:40.670Z,4.27
2022-11-27T22:34:47.203Z,4.45
2022-11-27T22:39:55.559Z,4.20
2022-11-27T22:45:01.624Z,4.05
2022-11-27T22:50:08.694Z,4.03
2022-11-27T22:55:17.012Z,3.97
2022-11-27T23:00:22.941Z,4.45
2022-11-27T23:05:28.568Z,4.63
2022-11-27T23:10:37.092Z,4.65
2022-11-27T23:15:42.575Z,4.07
2022-11-27T23:20:47.962Z,4.90
2022-11-27T23:25:55.934Z,4.07
2022-11-27T23:31:28.043Z,4.63
2022-11-27T23:36:27.005Z,4.80
2022-11-27T23:41:35.356Z,5.28
2022-11-27T23:46:40.802Z,4.40
2022-11-27T23:51:46.169Z,4.65
2022-11-27T23:56:55.563Z,4.47
